Sunday, August 19, 2018, 1:51 PM EDT
Back to Local

KBWI, Baltimore-washington International

Location: Glen Burnie, MD, United States Lat: 39.167
Local Time: 1:51 PM EDT (17:51 GMT) Lon: -76.683
Time Zone: US/Eastern Elev: 147 ft

Show me the last for .
Show Decoded

2018-08-19 12:54 METAR KBWI 191654Z VRB05KT 10SM BKN022 BKN035 BKN044 26/20 A2995 RMK AO2 SLP140
                 T02560200 =
2018-08-19 11:54 METAR KBWI 191554Z VRB03KT 10SM BKN022 BKN042 26/19 A2994 RMK AO2 SLP138
                 T02560194 =
2018-08-19 10:54 METAR KBWI 191454Z 32005KT 10SM BKN018 OVC038 24/19 A2995 RMK AO2 SLP139
                 T02390194 51014 =
2018-08-19 09:54 METAR KBWI 191354Z 35006KT 10SM BKN018 OVC034 23/19 A2994 RMK AO2 SLP137
                 T02330194 =
2018-08-19 09:34 METAR KBWI 191334Z 36006KT 10SM BKN018 OVC036 23/19 A2993 RMK AO2 T02330194 =
2018-08-19 08:54 METAR KBWI 191254Z VRB05KT 10SM SCT014 SCT022 SCT038 23/19 A2992 RMK AO2 SLP130
                 T02280194 =
2018-08-19 07:54 METAR KBWI 191154Z 34006KT 10SM BKN022 BKN037 22/19 A2991 RMK AO2 SLP125
                 T02220194 10233 20217 51018 =
2018-08-19 06:54 METAR KBWI 191054Z 31003KT 10SM FEW013 BKN021 BKN038 22/19 A2989 RMK AO2 SLP122
                 T02170194 =
2018-08-19 05:54 METAR KBWI 190954Z 31004KT 10SM BKN019 BKN038 22/19 A2987 RMK AO2 SLP112
                 T02220194 =
2018-08-19 04:54 METAR KBWI 190854Z 35005KT 10SM BKN020 OVC038 22/20 A2985 RMK AO2 SLP107
                 T02220200 53004 =
2018-08-19 04:06 METAR KBWI 190806Z 34006KT 10SM SCT022 BKN027 BKN038 BKN250 23/21 A2985 RMK AO2
                 T02280206 =
2018-08-19 03:54 METAR KBWI 190754Z 35007KT 10SM FEW025 BKN039 BKN250 23/21 A2985 RMK AO2 SLP106
                 T02280206 =
2018-08-19 02:54 METAR KBWI 190654Z 30004KT 10SM FEW025 BKN041 BKN075 23/21 A2984 RMK AO2 SLP102
                 T02330211 =
2018-08-19 01:54 METAR KBWI 190554Z 29004KT 10SM FEW029 SCT037 SCT075 23/21 A2984 RMK AO2 SLP103
                 T02280211 10272 20228 55000 =
2018-08-19 00:54 METAR KBWI 190454Z 30004KT 10SM SCT029 BKN036 BKN085 BKN250 24/21 A2984 RMK AO2
                 SLP102 T02390211 403110222 =
2018-08-18 23:54 METAR KBWI 190354Z 27004KT 10SM BKN032 BKN065 BKN110 BKN250 24/21 A2984 RMK AO2
                 SLP103 TCU DSNT E T02440211 =
2018-08-18 22:54 METAR KBWI 190254Z 27006KT 10SM FEW070 SCT095 SCT250 24/21 A2984 RMK AO2 SLP103
                 T02440206 51005 =
2018-08-18 21:54 METAR KBWI 190154Z 27004KT 10SM BKN100 BKN140 25/22 A2984 RMK AO2 LTG DSNT E
                 SLP103 T02500217 =
2018-08-18 20:54 METAR KBWI 190054Z 00000KT 10SM SCT085 BKN140 BKN230 26/22 A2984 RMK AO2 SLP102
                 T02610222 =
2018-08-18 19:54 METAR KBWI 182354Z 32004KT 10SM FEW040 SCT080 SCT140 BKN230 27/22 A2983 RMK AO2
                 SLP098 VIRGA S-SW CB DSNT S MOV E TCU DSNT SW AND DSNT NW T02670217 10311 20267
                 53007 =
2018-08-18 18:54 METAR KBWI 182254Z 27004KT 10SM FEW044 SCT090 BKN140 BKN170 BKN230 28/22 A2981
                 RMK AO2 SLP094 VIRGA N-OHD-S TCU DSNT NE AND DSNT NW T02780222 =
2018-08-18 17:54 METAR KBWI 182154Z 26007KT 10SM FEW044 BKN140 BKN170 OVC210 29/22 A2981 RMK AO2
                 SLP093 TCU DSNT SW-NW T02890222 =
2018-08-18 16:54 METAR KBWI 182054Z 26006KT 10SM FEW042 FEW080 SCT140 BKN170 BKN210 29/22 A2980
                 RMK AO2 SLP091 CB DSNT NW-N MOV E TCU SW-NW T02940217 56018 =
2018-08-18 15:54 METAR KBWI 181954Z 27007KT 10SM FEW042 SCT080 SCT140 BKN170 BKN210 29/22 A2982
                 RMK AO2 SLP095 VIRGA OHD-SW CB DSNT N-NE MOV E TCU DSNT SW-NW T02890222 =
2018-08-18 14:54 METAR KBWI 181854Z 26010KT 10SM SCT040TCU SCT080 BKN140 BKN170 BKN210 29/22
                 A2984 RMK AO2 SLP104 CB DSNT NW AND N MOV NE TCU S-SW AND DSNT NW-N T02890217 =
2018-08-18 13:54 METAR KBWI 181754Z 26008KT 10SM SCT038 SCT120 BKN150 BKN180 BKN210 31/22 A2986
                 RMK AO2 SLP109 CB DSNT NW MOV NE T03060217 10311 20228 56013 =

Support USWX by starting your Amazon purchase here.